Nearby METAR Reports  aus Husum-Schobuell

Datum und Uhrzeit beachten

ETNS - Schleswig(Ger-Na, Germany
Distance from station: E 31km
Updated: Wed, 13-Nov-2019 9:32:00 CET
Mostly Cloudy
Mostly Cloudy
 Wind from SSE
Wind: SSE 17 km/h
Temperature: 2°C
Wind Chill: -2°C
Dew Point: 1°C
Humidity: 93%
Barometer: 998 hPa
Clouds: Mostly Cloudy
Visibility: 10 km
Cloud details: Mostly Cloudy 457 m
2019/11/13 08:32 ETNS 130832Z 15009KT 9999 BKN015 02/01 Q0998 WHT WHT TEMPO GRN
ETNH - Hohn (ger-Afb), Germany
Distance from station: ESE 39km
Updated: Wed, 13-Nov-2019 9:20:00 CET
Mostly Cloudy
Mostly Cloudy
 Wind from SSE
Wind: SSE 9 km/h
Temperature: 2°C
Wind Chill: -1°C
Dew Point: 1°C
Humidity: 93%
Barometer: 998 hPa
Clouds: Mostly Cloudy
Visibility: 10 km
Cloud details: Mostly Cloudy 457 m
2019/11/13 08:20 ETNH 130820Z 15005KT 9999 BKN015 02/01 Q0998 WHT WHT TEMPO YLO
 
ETGG - Meierwik, Germany
Distance from station: NE 48km
Updated: Wed, 13-Nov-2019 9:20:00 CET
Mostly Cloudy
Mostly Cloudy
 Wind from SSE
Wind: SSE 20 km/h
Temperature: 2°C
Wind Chill: -3°C
Dew Point: 1°C
Humidity: 93%
Barometer: 997 hPa
Clouds: Mostly Cloudy
Visibility: 10 km
Cloud details: Mostly Cloudy 427 m
2019/11/13 08:20 ETGG 130820Z 16011KT 9999 BKN014 02/01 Q0997 GRN
EDXW - Westerland/Sylt, Germany
Distance from station: NW 65km
Updated: Wed, 13-Nov-2019 9:50:00 CET
Mostly Cloudy
Mostly Cloudy
 Wind from SSE
Wind: SSE 33 km/h
Temperature: 4°C
Wind Chill: -2°C
Dew Point: 3°C
Humidity: 93%
Barometer: 995 hPa
Clouds: Mostly Cloudy
Visibility: 10 km
Cloud details: Mostly Cloudy 335 m
2019/11/13 08:50 EDXW 130850Z 15018KT 9999 BKN011 04/03 Q0995
 
EDHK - Kiel/Holtenau Ci, Germany
Distance from station: E 73km
Updated: Wed, 13-Nov-2019 8:50:00 CET
NOT Current
Clear
Clear
 Wind from SSE
Wind: SSE 19 km/h
Temperature: 3°C
Wind Chill: -2°C
Dew Point: 1°C
Humidity: 87%
Barometer: 999 hPa
Summary: Clear
Visibility: greater than 10 km
2019/11/13 07:50 EDHK 130750Z 16010KT 130V190 CAVOK 03/01 Q0999
EKSP - Skrydstrup(Dan-A, Denmark
Distance from station: N 82km
Updated: Wed, 13-Nov-2019 9:50:00 CET
Mostly Cloudy
Mostly Cloudy
 Wind from SSE
Wind: SSE 20 km/h
Temperature: 3°C
Wind Chill: -2°C
Dew Point: 1°C
Humidity: 87%
Barometer: 997 hPa
Clouds: Mostly Cloudy
Visibility: 10 km
Cloud details: Mostly Cloudy 305 m
2019/11/13 08:50 EKSP 130850Z 15011KT 9999 BKN010 03/01 Q0997 NOSIG
 
EDDH - Hamburg/Fuhlsbut, Germany
Distance from station: SE 114km
Updated: Wed, 13-Nov-2019 9:50:00 CET
Partly Cloudy
Partly Cloudy
 Wind from S
Wind: S 17 km/h
Temperature: 3°C
Wind Chill: -1°C
Dew Point: 1°C
Humidity: 87%
Barometer: 999 hPa
Clouds: Partly Cloudy
Visibility: 10 km
Cloud details: Partly Cloudy 610 m
2019/11/13 08:50 EDDH 130850Z 17009KT 9999 SCT020 03/01 Q0999 NOSIG
EKEB - Esbjerg, Denmark
Distance from station: NNW 118km
Updated: Wed, 13-Nov-2019 9:50:00 CET
Overcast
Overcast
 Wind from ESE
Wind: ESE 15 km/h
Temperature: 3°C
Wind Chill: -1°C
Dew Point: 2°C
Humidity: 93%
Barometer: 996 hPa
Clouds: Overcast
Visibility: 10 km
Cloud details: Overcast 274 m
2019/11/13 08:50 EKEB 130850Z AUTO 12008KT 9999 OVC009/// 03/02 Q0996
 
EDHL - Luebeck/Blankens, Germany
Distance from station: SE 134km
Updated: Wed, 13-Nov-2019 9:50:00 CET
Clear
Clear
 Wind from SSW
Wind: SSW 9 km/h
Temperature: 2°C
Wind Chill: -1°C
Dew Point: 0°C
Humidity: 87%
Barometer: 1000 hPa
Summary: Clear
Visibility: greater than 10 km
2019/11/13 08:50 EDHL 130850Z 20005KT 170V230 CAVOK 02/00 Q1000
EKBI - Billund Airport, Denmark
Distance from station: N 136km
Updated: Wed, 13-Nov-2019 9:50:00 CET
Mostly Cloudy
Mostly Cloudy
 Wind from ESE
Wind: ESE 15 km/h
Temperature: 3°C
Wind Chill: -1°C
Dew Point: 2°C
Humidity: 93%
Barometer: 997 hPa
Clouds: Mostly Cloudy
Visibility: 10 km
Cloud details: Few Clouds 274 m
Mostly Cloudy 5182 m
2019/11/13 08:50 EKBI 130850Z AUTO 12008KT 9999 FEW009/// BKN170/// 03/02 Q0997 R09/CLRD//

Metar display script from Saratoga-Weather.org

Home : schobuell-wetter.de